Terminal Aerodrome Forecast
Issued by NWS Mt. Holly, NJ

Home | Current Version | Previous Version | Text Only | Print | Product List | Glossary On
Versions: 1 2 3 4 5 6 7 8 9 10 11 12 13 14 15 16 17 18 19 20 21 22
000
FTUS41 KPHI 121128
TAFRDG
TAF
KRDG 121128Z 1212/1312 16005KT P6SM BKN070
     FM121500 21005KT P6SM BKN040
     FM122000 27011G27KT P6SM BKN040
     FM122200 28013G28KT P6SM SCT045=

USA.gov is the U.S. government's official web portal to all federal, state and local government web resources and services.